Time;durP1;ratioP1;P1;durP2;ratioP2;P2;SDS_P1;SDS_P2;PMS_P1;PMS_P2;Temp;Humidity;BMP_temperature;BMP_pressure;BME280_temperature;BME280_humidity;BME280_pressure;Samples;Min_cycle;Max_cycle;Signal;HPM_P1;HPM_P2
2024/04/15 00:03:08;;;;;;;8.48;4.03;;;;;;;20.52;97.41;101485.19;11280072;26;20071;-94
2024/04/15 00:08:32;;;;;;;10.50;4.60;;;;;;;20.60;95.70;101467.22;11252947;26;20516;-94
2024/04/15 00:14:00;;;;;;;7.43;4.72;;;;;;;20.58;95.67;101418.94;11296926;26;20026;-95
2024/04/15 00:19:27;;;;;;;;;;;;;;;20.51;96.25;101379.69;11343763;26;20039;-95
2024/04/15 00:24:51;;;;;;;7.03;4.55;;;;;;;20.45;96.37;101428.06;11285780;26;19931;-95
2024/04/15 00:30:19;;;;;;;26.08;7.55;;;;;;;20.52;95.82;101470.00;11237709;26;20013;-96
2024/04/15 00:35:45;;;;;;;9.75;4.32;;;;;;;20.65;94.34;101492.16;11317849;26;20009;-92
2024/04/15 00:41:10;;;;;;;6.68;4.25;;;;;;;20.71;92.92;101464.34;11252086;26;20011;-96
2024/04/15 00:46:44;;;;;;;5.63;4.63;;;;;;;20.63;94.22;101405.44;11315003;26;19995;-93
2024/04/15 00:52:10;;;;;;;7.30;4.50;;;;;;;20.51;96.61;101384.16;11244605;26;20007;-93
2024/04/15 00:57:34;;;;;;;8.10;4.85;;;;;;;20.50;98.43;101417.25;11243394;26;20110;-95
2024/04/15 01:03:03;;;;;;;10.85;5.18;;;;;;;20.59;99.62;101449.34;11259149;26;20079;-93
2024/04/15 01:08:28;;;;;;;9.82;4.95;;;;;;;20.62;99.40;101442.09;11289217;26;19998;-88
2024/04/15 01:13:53;;;;;;;9.93;4.88;;;;;;;20.59;100.00;101406.41;11281223;26;20009;-95
2024/04/15 01:19:23;;;;;;;8.82;4.78;;;;;;;20.49;100.00;101402.94;11271169;26;20009;-93
2024/04/15 01:24:53;;;;;;;8.47;5.00;;;;;;;20.46;100.00;101432.53;11269867;26;20025;-94
2024/04/15 01:30:17;;;;;;;8.73;5.20;;;;;;;20.43;100.00;101462.06;11227356;26;20003;-93
2024/04/15 01:35:42;;;;;;;6.32;5.07;;;;;;;20.48;100.00;101454.84;11276170;26;20014;-92
2024/04/15 01:41:11;;;;;;;9.88;5.22;;;;;;;20.47;100.00;101442.34;11288551;26;20557;-94
2024/04/15 01:46:36;;;;;;;11.63;4.78;;;;;;;20.37;100.00;101412.97;11295603;26;20017;-93
2024/04/15 01:52:01;;;;;;;9.98;4.97;;;;;;;20.35;100.00;101433.59;11206407;26;20014;-93
2024/04/15 01:57:28;;;;;;;8.90;5.40;;;;;;;20.38;100.00;101461.25;11245392;26;20003;-94
2024/04/15 02:02:53;;;;;;;9.60;4.95;;;;;;;20.40;100.00;101463.91;11257658;26;20075;-95
2024/04/15 02:08:17;;;;;;;7.68;5.10;;;;;;;20.38;100.00;101426.38;11249130;26;20434;-95
2024/04/15 02:13:44;;;;;;;10.48;4.80;;;;;;;20.32;100.00;101404.97;11305614;26;20006;-94
2024/04/15 02:19:09;;;;;;;8.52;4.88;;;;;;;20.25;100.00;101431.00;11231708;26;19999;-94
2024/04/15 02:24:34;;;;;;;9.23;5.00;;;;;;;20.26;100.00;101464.06;11310063;26;20014;-93
2024/04/15 02:30:02;;;;;;;9.07;5.22;;;;;;;20.33;100.00;101446.13;11307884;26;20006;-92
2024/04/15 02:35:26;;;;;;;13.95;5.38;;;;;;;20.29;100.00;101416.63;11280659;26;20036;-90
2024/04/15 02:40:50;;;;;;;7.18;4.85;;;;;;;20.23;100.00;101442.63;11254547;26;20003;-93
2024/04/15 02:46:17;;;;;;;6.82;5.18;;;;;;;20.21;100.00;101468.59;11269903;26;20030;-93
2024/04/15 02:51:42;;;;;;;8.10;5.15;;;;;;;20.20;100.00;101465.03;11230087;26;20324;-93
2024/04/15 02:57:07;;;;;;;8.48;4.97;;;;;;;20.20;100.00;101440.00;11320201;26;20334;-93
2024/04/15 03:02:34;;;;;;;6.20;4.97;;;;;;;20.16;100.00;101441.81;11316780;26;20002;-95
2024/04/15 03:07:58;;;;;;;8.70;5.03;;;;;;;20.13;100.00;101483.88;11295376;26;20624;-93
2024/04/15 03:13:22;;;;;;;8.27;4.90;;;;;;;20.13;100.00;101490.13;11313445;26;19999;-94
2024/04/15 03:18:50;;;;;;;10.70;5.55;;;;;;;20.18;100.00;101453.44;11296146;26;20030;-95
2024/04/15 03:24:14;;;;;;;8.32;5.10;;;;;;;20.10;100.00;101468.72;11329690;26;20013;-93
2024/04/15 03:29:41;;;;;;;6.95;4.95;;;;;;;20.00;100.00;101501.91;11342398;26;20723;-94
2024/04/15 03:35:10;;;;;;;7.47;4.55;;;;;;;19.96;100.00;101496.56;11272755;26;19998;-94
2024/04/15 03:40:35;;;;;;;8.07;4.70;;;;;;;19.95;100.00;101463.56;11319685;26;20003;-94
2024/04/15 03:45:59;;;;;;;8.77;5.35;;;;;;;19.89;100.00;101475.22;11310037;26;20009;-93
2024/04/15 03:51:25;;;;;;;7.72;4.82;;;;;;;19.87;100.00;101493.13;11260537;26;20009;-93
2024/04/15 03:56:49;;;;;;;11.10;5.22;;;;;;;19.84;100.00;101471.69;11293977;26;19998;-92
2024/04/15 04:02:14;;;;;;;7.90;4.50;;;;;;;19.84;100.00;101466.34;11284836;26;20597;-93
2024/04/15 04:07:41;;;;;;;9.95;5.43;;;;;;;19.95;100.00;101486.78;11259179;26;20004;-95
2024/04/15 04:13:05;;;;;;;12.82;5.78;;;;;;;20.11;100.00;101475.84;11184636;26;20027;-94
2024/04/15 04:18:30;;;;;;;6.93;5.00;;;;;;;20.36;100.00;101438.91;11308982;26;20094;-95
2024/04/15 04:23:57;;;;;;;9.43;5.45;;;;;;;20.63;100.00;101459.09;11288706;26;20010;-94
2024/04/15 04:29:21;;;;;;;7.57;5.05;;;;;;;21.06;100.00;101470.97;11302382;26;19998;-95
2024/04/15 04:34:45;;;;;;;10.18;4.72;;;;;;;21.47;100.00;101469.38;11284752;26;20002;-94
2024/04/15 04:40:15;;;;;;;8.55;4.95;;;;;;;21.91;100.00;101451.53;11250899;26;19999;-93
2024/04/15 04:45:39;;;;;;;11.43;4.90;;;;;;;22.32;99.13;101481.19;11248390;26;19999;-94
2024/04/15 04:51:08;;;;;;;9.70;5.53;;;;;;;22.59;94.34;101498.53;11225643;26;20010;-93
2024/04/15 04:56:35;;;;;;;8.70;4.20;;;;;;;22.98;92.88;101469.84;11302756;26;20020;-93
2024/04/15 05:02:01;;;;;;;9.40;4.55;;;;;;;23.42;91.58;101485.81;11232194;26;20451;-95
2024/04/15 05:07:25;;;;;;;10.65;4.90;;;;;;;23.90;89.68;101500.72;11284351;26;20014;-91
2024/04/15 05:12:53;;;;;;;9.02;4.70;;;;;;;24.30;83.95;101473.50;11347701;26;20002;-93
2024/04/15 05:18:18;;;;;;;6.60;4.30;;;;;;;24.49;77.31;101489.13;11338879;26;20002;-93
2024/04/15 05:23:42;;;;;;;7.00;4.55;;;;;;;24.67;73.53;101503.91;11298514;26;20010;-91
2024/04/15 05:29:09;;;;;;;10.80;4.88;;;;;;;25.03;71.26;101496.47;11269152;26;20002;-94
2024/04/15 05:34:37;;;;;;;6.13;4.03;;;;;;;25.32;67.42;101498.22;11258194;26;20006;-92
2024/04/15 05:40:01;;;;;;;7.97;3.90;;;;;;;25.64;62.33;101506.13;11322831;26;20013;-93
2024/04/15 05:45:29;;;;;;;7.07;4.35;;;;;;;25.99;59.35;101494.03;11270735;26;20002;-86
2024/04/15 05:50:53;;;;;;;;;;;;;;;26.28;56.12;101503.84;11267811;26;20008;-93
2024/04/15 05:56:18;;;;;;;7.25;3.80;;;;;;;26.12;53.84;101508.03;11262244;26;19925;-92
2024/04/15 06:01:45;;;;;;;6.25;3.70;;;;;;;26.58;53.82;101486.41;11310244;26;20014;-92
2024/04/15 06:07:10;;;;;;;7.63;3.90;;;;;;;27.09;51.41;101500.69;11231976;26;20358;-93
2024/04/15 06:12:34;;;;;;;5.40;3.97;;;;;;;27.21;49.43;101516.44;11264466;26;20007;-94
2024/04/15 06:18:02;;;;;;;11.45;5.80;;;;;;;27.60;48.38;101489.50;11267370;26;20014;-93
2024/04/15 06:23:26;;;;;;;8.95;4.00;;;;;;;27.96;46.31;101498.72;11294385;26;20015;-93
2024/04/15 06:28:52;;;;;;;5.82;3.85;;;;;;;27.93;44.56;101511.56;11296727;26;20278;-95
2024/04/15 06:34:21;;;;;;;6.22;3.70;;;;;;;28.09;44.60;101496.34;11211347;26;19999;-95
2024/04/15 06:39:45;;;;;;;8.48;7.03;;;;;;;28.72;43.99;101505.19;11203639;26;20052;-94
2024/04/15 06:45:10;;;;;;;4.60;3.28;;;;;;;29.05;42.36;101528.06;11279057;26;20023;-96
2024/04/15 06:50:37;;;;;;;5.30;3.45;;;;;;;29.15;41.08;101488.56;11349696;26;20012;-96
2024/04/15 06:56:01;;;;;;;7.43;3.90;;;;;;;29.42;40.40;101518.09;11283848;26;20446;-96
2024/04/15 07:01:27;;;;;;;10.50;3.58;;;;;;;29.57;39.30;101509.16;11259589;26;20038;-95
2024/04/15 07:06:54;;;;;;;;;;;;;;;29.79;39.50;101507.09;11243258;26;19996;-93
2024/04/15 07:12:19;;;;;;;6.18;3.60;;;;;;;29.98;38.14;101520.63;11272906;26;19924;-87
2024/04/15 07:17:44;;;;;;;7.30;3.53;;;;;;;30.12;38.05;101512.63;11261015;26;20456;-88
2024/04/15 07:23:11;;;;;;;7.18;3.53;;;;;;;30.49;37.69;101515.13;11268068;26;20116;-89
2024/04/15 07:28:35;;;;;;;6.78;3.10;;;;;;;30.71;35.99;101531.16;11235513;26;20006;-91
2024/04/15 07:34:01;;;;;;;6.65;3.63;;;;;;;30.94;35.83;101520.78;11205805;26;20021;-88
2024/04/15 07:39:28;;;;;;;7.18;3.40;;;;;;;31.19;35.55;101521.16;11302025;26;20088;-93
2024/04/15 07:44:52;;;;;;;6.68;3.42;;;;;;;31.19;34.42;101502.94;11301433;26;20066;-93
2024/04/15 07:50:18;;;;;;;7.57;3.43;;;;;;;31.34;34.72;101505.72;11263682;26;20014;-87
2024/04/15 07:55:48;;;;;;;7.68;3.83;;;;;;;31.23;34.95;101503.66;11246649;26;19998;-95
2024/04/15 08:01:15;;;;;;;5.43;3.38;;;;;;;31.45;33.75;101489.59;11230817;26;20024;-91
2024/04/15 08:06:41;;;;;;;5.15;3.40;;;;;;;31.45;33.96;101503.25;11253292;26;20537;-90
2024/04/15 08:12:11;;;;;;;5.47;3.10;;;;;;;31.73;33.39;101497.03;11290795;26;20088;-88
2024/04/15 08:17:41;;;;;;;6.03;3.58;;;;;;;31.92;33.16;101509.47;11259127;26;21607;-88
2024/04/15 08:23:05;;;;;;;6.20;3.25;;;;;;;32.10;32.98;101512.91;11246770;26;19999;-88
2024/04/15 08:28:32;;;;;;;5.63;3.40;;;;;;;32.32;32.85;101490.59;11358920;26;20018;-89
2024/04/15 08:33:56;;;;;;;5.07;3.40;;;;;;;32.37;32.28;101507.59;11324894;26;20001;-89
2024/04/15 08:39:21;;;;;;;7.18;3.47;;;;;;;32.39;32.55;101501.06;11377228;26;20030;-90
2024/04/15 08:44:49;;;;;;;4.50;3.15;;;;;;;32.55;31.36;101497.34;11322812;26;19994;-90
2024/04/15 08:50:13;;;;;;;8.00;3.40;;;;;;;32.76;31.62;101505.06;11298663;26;20461;-89
2024/04/15 08:55:38;;;;;;;4.00;2.90;;;;;;;33.06;31.09;101493.97;11262086;26;20020;-91
2024/04/15 09:01:07;;;;;;;5.97;4.00;;;;;;;33.14;30.76;101502.53;11206580;26;20596;-90
2024/04/15 09:06:32;;;;;;;7.32;3.45;;;;;;;33.04;30.99;101515.06;11251432;26;20517;-90
2024/04/15 09:11:56;;;;;;;6.05;3.25;;;;;;;33.18;31.03;101508.69;11223682;26;20430;-90
2024/04/15 09:17:23;;;;;;;6.40;3.70;;;;;;;33.56;30.17;101495.16;11254707;26;20038;-91
2024/04/15 09:22:48;;;;;;;4.47;3.13;;;;;;;33.74;29.54;101493.03;11324631;26;19999;-91
2024/04/15 09:28:12;;;;;;;7.38;3.00;;;;;;;33.98;28.57;101496.78;11275285;26;20335;-90
2024/04/15 09:33:41;;;;;;;4.85;3.42;;;;;;;34.00;28.09;101498.41;11206693;26;20428;-91
2024/04/15 09:39:07;;;;;;;6.20;3.15;;;;;;;34.09;28.24;101496.91;11176535;26;20039;-90
2024/04/15 09:44:32;;;;;;;4.50;3.10;;;;;;;34.20;27.84;101494.25;11201522;26;20007;-91
2024/04/15 09:50:05;;;;;;;5.63;2.92;;;;;;;34.27;27.73;101503.84;11154542;26;20004;-91
2024/04/15 09:55:33;;;;;;;6.38;2.72;;;;;;;34.14;26.79;101502.03;11192619;26;20018;-91
2024/04/15 10:01:01;;;;;;;5.97;2.60;;;;;;;34.05;27.14;101517.31;11299851;26;20376;-91
2024/04/15 10:06:34;;;;;;;4.22;2.72;;;;;;;34.05;26.55;101494.50;11253224;26;20002;-91
2024/04/15 10:12:00;;;;;;;9.10;3.00;;;;;;;34.21;26.15;101498.78;11162266;26;20012;-94
2024/04/15 10:17:28;;;;;;;8.57;3.38;;;;;;;34.27;26.43;101483.75;11204177;26;20083;-90
2024/04/15 10:22:59;;;;;;;5.55;2.90;;;;;;;34.28;25.86;101480.03;11215565;26;20024;-91
2024/04/15 10:28:24;;;;;;;4.13;2.45;;;;;;;34.27;25.57;101478.28;11215788;26;20004;-88
2024/04/15 10:33:51;;;;;;;12.02;3.20;;;;;;;34.32;25.52;101485.22;11230437;26;20003;-92
2024/04/15 10:39:21;;;;;;;9.07;2.45;;;;;;;34.52;24.68;101466.41;11278840;26;20003;-91
2024/04/15 10:44:46;;;;;;;6.43;2.83;;;;;;;34.21;25.38;101459.50;11275197;26;19999;-91
2024/04/15 10:50:13;;;;;;;6.35;2.85;;;;;;;33.99;25.91;101454.69;11229115;26;20031;-90
2024/04/15 10:56:13;;;;;;;5.90;2.60;;;;;;;33.96;25.52;101460.38;11211175;26;20346;-88
2024/04/15 11:01:49;;;;;;;5.63;3.08;;;;;;;33.83;25.41;101457.63;11231928;26;20426;-87
2024/04/15 11:07:15;;;;;;;5.97;2.70;;;;;;;33.37;26.40;101451.72;11192435;26;20003;-89
2024/04/15 11:12:45;;;;;;;5.70;2.83;;;;;;;33.24;26.88;101445.31;11216925;26;20008;-87
2024/04/15 11:18:17;;;;;;;5.22;2.50;;;;;;;33.25;26.34;101436.13;11186853;26;20004;-87
2024/04/15 11:23:41;;;;;;;4.45;2.40;;;;;;;33.12;26.19;101438.81;11202879;26;20088;-89
2024/04/15 11:29:10;;;;;;;5.50;2.60;;;;;;;33.04;26.18;101424.75;11253598;26;19995;-87
2024/04/15 11:34:36;;;;;;;4.03;2.85;;;;;;;32.95;26.56;101416.31;11277417;26;20045;-87
2024/04/15 11:40:01;;;;;;;5.55;2.58;;;;;;;32.75;27.19;101414.91;11242659;26;20068;-88
2024/04/15 11:45:29;;;;;;;6.13;2.97;;;;;;;32.64;26.64;101403.75;11243482;26;20086;-89
2024/04/15 11:50:53;;;;;;;5.05;2.55;;;;;;;32.53;26.45;101398.13;11209372;26;20031;-89
2024/04/15 11:56:19;;;;;;;3.33;2.55;;;;;;;32.48;25.59;101392.97;11232816;26;20450;-93
2024/04/15 12:01:46;;;;;;;3.78;2.15;;;;;;;32.20;25.38;101385.69;11174965;26;20004;-89
2024/04/15 12:07:11;;;;;;;3.40;2.63;;;;;;;32.07;25.23;101373.75;11178659;26;20004;-90
2024/04/15 12:12:35;;;;;;;7.53;2.78;;;;;;;32.02;25.09;101384.09;11258483;26;20020;-91
2024/04/15 12:18:02;;;;;;;4.38;2.00;;;;;;;31.92;24.36;101380.19;11247809;26;19994;-91
2024/04/15 12:23:28;;;;;;;2.50;2.10;;;;;;;31.65;24.12;101360.94;11235072;26;20011;-92
2024/04/15 12:28:52;;;;;;;4.13;2.20;;;;;;;31.39;25.71;101358.94;11174044;26;20358;-92
2024/04/15 12:34:21;;;;;;;9.27;3.47;;;;;;;31.11;26.48;101354.31;11198068;26;20013;-92
2024/04/15 12:39:47;;;;;;;6.75;2.80;;;;;;;30.73;26.45;101334.72;11211627;26;20080;-91
2024/04/15 12:45:11;;;;;;;6.10;2.92;;;;;;;30.37;27.13;101356.81;11176658;26;20011;-94
2024/04/15 12:50:38;;;;;;;5.18;2.10;;;;;;;30.00;26.75;101347.09;11175101;26;20326;-91
2024/04/15 12:56:03;;;;;;;5.43;2.30;;;;;;;29.76;27.13;101343.88;11199974;26;20031;-91
2024/04/15 13:01:27;;;;;;;7.40;2.30;;;;;;;29.51;26.81;101344.31;11223825;26;20006;-91
2024/04/15 13:06:55;;;;;;;5.40;2.83;;;;;;;29.44;27.19;101342.00;11273195;26;19999;-92
2024/04/15 13:12:22;;;;;;;5.78;2.75;;;;;;;29.22;28.09;101315.91;11182488;26;19999;-86
2024/04/15 13:17:47;;;;;;;4.40;2.50;;;;;;;28.91;28.53;101327.53;11195966;26;20519;-86
2024/04/15 13:23:15;;;;;;;4.38;2.13;;;;;;;28.83;28.07;101334.31;11247493;26;20044;-85
2024/04/15 13:28:39;;;;;;;3.55;2.35;;;;;;;28.63;28.17;101327.13;11268583;26;20002;-85
2024/04/15 13:34:04;;;;;;;3.80;2.30;;;;;;;28.54;28.46;101316.72;11209770;26;20017;-86
2024/04/15 13:39:31;;;;;;;6.05;2.30;;;;;;;28.58;27.89;101331.03;11175165;26;20476;-89
2024/04/15 13:44:55;;;;;;;4.82;2.00;;;;;;;28.65;27.72;101325.22;11198537;26;20003;-88
2024/04/15 13:50:20;;;;;;;6.75;2.67;;;;;;;28.57;28.21;101312.97;11198329;26;20068;-87
2024/04/15 13:55:50;;;;;;;4.43;2.83;;;;;;;28.53;28.60;101304.97;11172405;26;20046;-87
2024/04/15 14:01:14;;;;;;;5.97;2.38;;;;;;;28.60;28.63;101289.25;11177345;26;20000;-86
2024/04/15 14:06:39;;;;;;;4.88;2.60;;;;;;;28.57;29.01;101283.94;11195924;26;20004;-89
2024/04/15 14:12:06;;;;;;;7.13;2.67;;;;;;;28.57;28.94;101285.78;11183743;26;20003;-92
2024/04/15 14:17:31;;;;;;;5.35;2.72;;;;;;;28.58;29.59;101279.41;11205923;26;20013;-89
2024/04/15 14:22:55;;;;;;;5.85;2.80;;;;;;;28.55;30.41;101281.31;11198004;26;20075;-90
2024/04/15 14:28:22;;;;;;;4.32;3.00;;;;;;;28.54;30.67;101267.81;11215462;26;20383;-91
2024/04/15 14:33:49;;;;;;;6.60;2.90;;;;;;;28.49;31.56;101276.19;11202984;26;20003;-92
2024/04/15 14:39:14;;;;;;;10.73;3.90;;;;;;;28.57;31.88;101272.19;11255491;26;19999;-93
2024/04/15 14:44:41;;;;;;;4.13;2.85;;;;;;;28.57;31.55;101264.94;11246073;26;20003;-93
2024/04/15 14:50:08;;;;;;;6.63;3.20;;;;;;;28.47;31.53;101255.50;11247372;26;20018;-92
2024/04/15 14:55:32;;;;;;;4.35;2.92;;;;;;;28.40;31.26;101260.38;11106591;26;20085;-91
2024/04/15 15:00:59;;;;;;;5.32;3.15;;;;;;;28.29;31.31;101265.44;11228022;26;20080;-93
2024/04/15 15:06:24;;;;;;;5.18;3.30;;;;;;;27.84;31.90;101254.97;11254535;26;20018;-92
2024/04/15 15:11:48;;;;;;;7.30;2.85;;;;;;;27.48;32.17;101259.41;11215278;26;20004;-93
2024/04/15 15:17:17;;;;;;;6.47;2.92;;;;;;;27.18;31.97;101264.38;11232163;26;20014;-91
2024/04/15 15:22:41;;;;;;;5.75;3.28;;;;;;;26.90;32.83;101260.22;11196129;26;20472;-89
2024/04/15 15:28:07;;;;;;;6.03;3.63;;;;;;;26.68;34.77;101263.88;11186206;26;19999;-90
2024/04/15 15:33:35;;;;;;;10.38;3.70;;;;;;;26.45;36.17;101260.31;11203140;26;20095;-83
2024/04/15 15:38:59;;;;;;;7.57;3.83;;;;;;;26.30;36.70;101254.69;11159474;26;20004;-85
2024/04/15 15:44:23;;;;;;;6.60;3.92;;;;;;;26.08;37.71;101260.94;11193565;26;20642;-84
2024/04/15 15:49:50;;;;;;;7.72;4.38;;;;;;;25.87;39.07;101275.31;11209396;26;20011;-92
2024/04/15 15:55:15;;;;;;;5.30;4.20;;;;;;;25.64;40.19;101272.63;11205197;26;20002;-90
2024/04/15 16:00:40;;;;;;;12.55;4.13;;;;;;;25.45;42.34;101269.72;11214076;26;20014;-92
2024/04/15 16:06:07;;;;;;;11.75;4.20;;;;;;;25.28;43.57;101266.75;11168334;26;20022;-88
2024/04/15 16:11:32;;;;;;;15.52;5.45;;;;;;;25.19;43.79;101280.63;11173526;26;20003;-84
2024/04/15 16:16:58;;;;;;;12.48;4.60;;;;;;;25.10;44.05;101279.13;11174868;26;20000;-87
2024/04/15 16:22:26;;;;;;;9.93;4.50;;;;;;;24.96;44.62;101266.13;11170248;26;20003;-81
2024/04/15 16:27:50;;;;;;;;;;;;;;;24.91;43.96;101270.81;11175825;26;20065;-88
2024/04/15 16:33:15;;;;;;;11.27;7.10;;;;;;;24.65;44.27;101272.63;11177097;26;19924;-87
2024/04/15 16:38:44;;;;;;;89.38;43.97;;;;;;;24.44;44.57;101272.41;11180677;26;20004;-95
2024/04/15 16:44:09;;;;;;;11.27;6.95;;;;;;;24.34;44.60;101284.47;11208372;26;19999;-87
2024/04/15 16:49:34;;;;;;;10.30;5.22;;;;;;;24.23;45.68;101287.47;11202642;26;20014;-87
2024/04/15 16:55:02;;;;;;;8.32;5.15;;;;;;;24.13;47.08;101279.72;11179952;26;20084;-90
2024/04/15 17:00:26;;;;;;;;;;;;;;;24.11;46.56;101297.75;11178697;26;20043;-86
2024/04/15 17:05:50;;;;;;;7.72;4.35;;;;;;;23.59;49.06;101304.75;11179057;26;19939;-86
2024/04/15 17:11:17;;;;;;;10.40;4.82;;;;;;;23.27;50.66;101312.84;11235498;26;20448;-82
2024/04/15 17:16:42;;;;;;;11.20;4.83;;;;;;;23.12;52.28;101318.63;11200566;26;20003;-90
2024/04/15 17:22:08;;;;;;;9.00;5.18;;;;;;;23.14;51.48;101327.56;11200854;26;20229;-88
2024/04/15 17:27:35;;;;;;;9.05;5.30;;;;;;;23.06;52.66;101330.47;11240064;26;20001;-86
2024/04/15 17:33:00;;;;;;;6.43;3.93;;;;;;;22.82;52.14;101345.47;11216203;26;20011;-93
2024/04/15 17:38:24;;;;;;;5.78;4.10;;;;;;;22.60;52.37;101338.81;11251204;26;19999;-87
2024/04/15 17:43:52;;;;;;;8.60;4.10;;;;;;;22.49;52.45;101343.56;11223241;26;20014;-85
2024/04/15 17:49:16;;;;;;;6.57;4.15;;;;;;;22.22;52.62;101337.94;11249990;26;20009;-83
2024/04/15 17:54:41;;;;;;;8.98;3.78;;;;;;;22.05;52.85;101318.63;11214195;26;20079;-87
2024/04/15 18:00:11;;;;;;;6.45;4.28;;;;;;;21.94;53.35;101338.53;11242427;26;20323;-85
2024/04/15 18:05:38;;;;;;;5.90;4.15;;;;;;;21.87;53.21;101338.66;11295828;26;19999;-87
2024/04/15 18:11:02;;;;;;;5.90;3.92;;;;;;;21.76;53.24;101321.91;11244784;26;20014;-80
2024/04/15 18:16:30;;;;;;;5.97;3.67;;;;;;;21.68;53.02;101336.41;11294113;26;20056;-82
2024/04/15 18:21:55;;;;;;;6.05;3.60;;;;;;;21.42;53.90;101332.47;11291021;26;20543;-82
2024/04/15 18:27:20;;;;;;;9.15;4.28;;;;;;;21.48;54.99;101339.50;11221645;26;19998;-91
2024/04/15 18:32:48;;;;;;;7.13;3.58;;;;;;;21.28;55.25;101342.56;11262110;26;20079;-89
2024/04/15 18:38:15;;;;;;;6.43;3.00;;;;;;;21.18;55.66;101327.56;11277637;26;20003;-91
2024/04/15 18:43:42;;;;;;;5.75;3.33;;;;;;;20.96;56.73;101324.34;11254392;26;20014;-89
2024/04/15 18:49:11;;;;;;;5.38;3.10;;;;;;;20.88;57.69;101315.53;11230637;26;20074;-85
2024/04/15 18:54:36;;;;;;;8.85;3.33;;;;;;;20.93;56.24;101315.47;11204603;26;20051;-82
2024/04/15 19:00:01;;;;;;;6.43;3.28;;;;;;;20.80;57.26;101305.88;11229348;26;20018;-83
2024/04/15 19:05:29;;;;;;;4.25;3.08;;;;;;;20.83;57.86;101305.81;11231253;26;20002;-81
2024/04/15 19:10:53;;;;;;;4.80;2.90;;;;;;;20.55;59.58;101298.22;11234838;26;20021;-87
2024/04/15 19:16:20;;;;;;;4.90;3.22;;;;;;;20.46;62.58;101292.16;11238336;26;20003;-88
2024/04/15 19:21:48;;;;;;;6.38;3.00;;;;;;;20.62;60.91;101302.59;11214399;26;20011;-88
2024/04/15 19:27:14;;;;;;;6.78;4.03;;;;;;;20.67;59.49;101289.13;11286913;26;20537;-86
2024/04/15 19:32:39;;;;;;;16.92;15.07;;;;;;;20.28;61.58;101290.63;11272073;26;20003;-87
2024/04/15 19:38:06;;;;;;;8.55;4.60;;;;;;;20.28;62.77;101280.75;11281267;26;20011;-88
2024/04/15 19:43:31;;;;;;;5.20;3.65;;;;;;;20.25;63.67;101277.25;11254645;26;20035;-90
2024/04/15 19:48:57;;;;;;;5.70;3.63;;;;;;;20.06;69.00;101270.41;11240897;26;19999;-87
2024/04/15 19:54:24;;;;;;;6.47;3.85;;;;;;;20.00;70.65;101263.34;11229512;26;20093;-88
2024/04/15 19:59:51;;;;;;;5.47;4.00;;;;;;;20.05;69.92;101265.94;11254719;26;19998;-89
2024/04/15 20:05:15;;;;;;;4.43;3.35;;;;;;;19.89;74.38;101251.88;11280566;26;19999;-89
2024/04/15 20:10:42;;;;;;;6.43;3.65;;;;;;;19.80;82.54;101247.56;11230829;26;20002;-89
2024/04/15 20:16:08;;;;;;;;;;;;;;;19.86;85.19;101247.47;11229190;26;20031;-89
2024/04/15 20:21:33;;;;;;;6.57;3.30;;;;;;;19.90;86.87;101250.97;11278190;26;19924;-87
2024/04/15 20:27:02;;;;;;;4.90;3.50;;;;;;;19.95;86.13;101242.88;11339602;26;20030;-87
2024/04/15 20:32:28;;;;;;;5.32;3.53;;;;;;;20.10;85.86;101256.03;11249642;26;20010;-88
2024/04/15 20:37:52;;;;;;;4.43;3.53;;;;;;;20.21;87.01;101238.00;11281192;26;20013;-87
2024/04/15 20:43:21;;;;;;;6.05;3.33;;;;;;;20.26;86.67;101241.50;11287544;26;20013;-88
2024/04/15 20:48:45;;;;;;;5.65;3.22;;;;;;;20.22;86.18;101232.59;11248479;26;20339;-89
2024/04/15 20:54:10;;;;;;;6.10;3.20;;;;;;;20.34;83.18;101228.00;11285119;26;20002;-88
2024/04/15 20:59:37;;;;;;;3.80;2.78;;;;;;;20.47;78.71;101237.59;11328344;26;20003;-86
2024/04/15 21:05:02;;;;;;;;;;;;;;;20.55;77.54;101241.00;11230331;26;20082;-86
2024/04/15 21:10:27;;;;;;;5.18;2.90;;;;;;;20.51;75.08;101240.19;11246828;26;19939;-84
2024/04/15 21:15:55;;;;;;;4.80;3.05;;;;;;;20.55;70.34;101241.88;11247811;26;20431;-86
2024/04/15 21:21:23;;;;;;;5.78;3.50;;;;;;;20.61;67.31;101252.50;11317675;26;20010;-86
2024/04/15 21:26:52;;;;;;;3.92;2.83;;;;;;;20.63;66.03;101242.66;11325150;26;20017;-89
2024/04/15 21:32:20;;;;;;;3.88;2.90;;;;;;;20.63;64.10;101247.13;11249513;26;20013;-87
2024/04/15 21:37:45;;;;;;;13.20;3.40;;;;;;;20.71;62.39;101247.88;11325752;26;20001;-84
2024/04/15 21:43:10;;;;;;;3.85;3.03;;;;;;;20.74;61.37;101238.91;11301145;26;19999;-85
2024/04/15 21:48:37;;;;;;;3.70;2.92;;;;;;;20.79;59.72;101232.53;11222887;26;19998;-86
2024/04/15 21:54:01;;;;;;;6.63;3.20;;;;;;;20.81;58.28;101225.31;11310201;26;20545;-86
2024/04/15 21:59:27;;;;;;;4.65;2.90;;;;;;;20.85;56.79;101215.41;11254560;26;20422;-87
2024/04/15 22:04:54;;;;;;;3.92;2.70;;;;;;;20.85;55.33;101207.38;11324712;26;20004;-86
2024/04/15 22:10:19;;;;;;;4.93;3.57;;;;;;;20.87;54.05;101200.19;11208539;26;20003;-87
2024/04/15 22:15:43;;;;;;;5.95;3.15;;;;;;;20.87;52.75;101192.13;11240808;26;20062;-85
2024/04/15 22:21:10;;;;;;;3.92;2.90;;;;;;;20.94;51.70;101196.44;11230610;26;20017;-86
2024/04/15 22:26:35;;;;;;;7.00;2.83;;;;;;;20.97;50.54;101177.59;11255579;26;20010;-86
2024/04/15 22:31:59;;;;;;;4.78;2.92;;;;;;;21.06;49.03;101175.63;11182634;26;20017;-84
2024/04/15 22:37:27;;;;;;;4.57;2.97;;;;;;;21.20;48.29;101186.06;11222429;26;20088;-87
2024/04/15 22:42:51;;;;;;;8.10;3.00;;;;;;;21.22;47.40;101183.34;11328783;26;20519;-86
2024/04/15 22:48:17;;;;;;;5.82;2.83;;;;;;;21.24;46.82;101178.84;11329916;26;20755;-84
2024/04/15 22:53:44;;;;;;;3.53;2.50;;;;;;;21.26;46.17;101171.66;11157444;26;19999;-86
2024/04/15 22:59:09;;;;;;;5.57;2.90;;;;;;;21.24;45.43;101155.56;11223997;26;20003;-85
2024/04/15 23:04:33;;;;;;;3.10;2.22;;;;;;;21.27;44.99;101154.59;11241149;26;19995;-84
2024/04/15 23:10:00;;;;;;;3.90;2.50;;;;;;;21.25;44.54;101157.34;11279058;26;20018;-85
2024/04/15 23:15:25;;;;;;;6.00;2.63;;;;;;;21.30;43.96;101131.25;11307720;26;20011;-85
2024/04/15 23:20:50;;;;;;;7.03;2.53;;;;;;;21.40;43.14;101132.78;11291456;26;20261;-85
2024/04/15 23:26:19;;;;;;;4.97;2.40;;;;;;;21.39;43.53;101132.84;11363010;25;20010;-87
2024/04/15 23:31:45;;;;;;;5.17;2.67;;;;;;;21.29;43.49;101093.69;11282910;26;20323;-87
2024/04/15 23:37:09;;;;;;;4.63;2.50;;;;;;;21.41;42.57;101109.50;11271563;26;20224;-85
2024/04/15 23:42:36;;;;;;;3.20;2.60;;;;;;;21.48;42.29;101103.97;11362074;26;20010;-84
2024/04/15 23:48:19;;;;;;;3.63;2.33;;;;;;;21.38;42.57;101090.78;11295297;26;20465;-85
2024/04/15 23:54:03;;;;;;;3.58;2.55;;;;;;;21.24;42.90;101072.31;11303755;26;20078;-86
2024/04/15 23:59:49;;;;;;;6.72;2.90;;;;;;;21.18;43.14;101072.47;11294713;26;20051;-83
